sensor_id;sensor_type;location;lat;lon;timestamp;P1;durP1;ratioP1;P2;durP2;ratioP2
78183;SDS011;67442;44.570;18.610;2023-10-31T00:02:23;32.85;;;16.27;;
78183;SDS011;67442;44.570;18.610;2023-10-31T00:04:51;34.63;;;16.13;;
78183;SDS011;67442;44.570;18.610;2023-10-31T00:07:18;30.35;;;16.05;;
78183;SDS011;67442;44.570;18.610;2023-10-31T00:09:46;34.08;;;16.65;;
78183;SDS011;67442;44.570;18.610;2023-10-31T00:12:17;32.70;;;16.30;;
78183;SDS011;67442;44.570;18.610;2023-10-31T00:14:44;31.48;;;15.68;;
78183;SDS011;67442;44.570;18.610;2023-10-31T00:17:12;30.52;;;15.80;;
78183;SDS011;67442;44.570;18.610;2023-10-31T00:19:43;31.17;;;15.25;;
78183;SDS011;67442;44.570;18.610;2023-10-31T00:22:10;35.25;;;16.70;;
78183;SDS011;67442;44.570;18.610;2023-10-31T00:24:38;35.13;;;16.52;;
78183;SDS011;67442;44.570;18.610;2023-10-31T00:27:06;31.15;;;15.75;;
78183;SDS011;67442;44.570;18.610;2023-10-31T00:29:33;30.00;;;15.10;;
78183;SDS011;67442;44.570;18.610;2023-10-31T00:32:00;30.70;;;15.65;;
78183;SDS011;67442;44.570;18.610;2023-10-31T00:34:28;32.20;;;16.63;;
78183;SDS011;67442;44.570;18.610;2023-10-31T00:36:59;29.75;;;15.50;;
78183;SDS011;67442;44.570;18.610;2023-10-31T00:39:30;31.48;;;15.98;;
78183;SDS011;67442;44.570;18.610;2023-10-31T00:41:59;30.27;;;15.75;;
78183;SDS011;67442;44.570;18.610;2023-10-31T00:44:26;31.92;;;16.42;;
78183;SDS011;67442;44.570;18.610;2023-10-31T00:46:53;30.33;;;15.45;;
78183;SDS011;67442;44.570;18.610;2023-10-31T00:49:21;31.38;;;15.68;;
78183;SDS011;67442;44.570;18.610;2023-10-31T00:51:48;30.23;;;15.07;;
78183;SDS011;67442;44.570;18.610;2023-10-31T00:54:16;30.10;;;15.88;;
78183;SDS011;67442;44.570;18.610;2023-10-31T00:56:43;35.00;;;16.73;;
78183;SDS011;67442;44.570;18.610;2023-10-31T00:59:15;30.80;;;15.73;;
78183;SDS011;67442;44.570;18.610;2023-10-31T01:01:46;32.72;;;16.23;;
78183;SDS011;67442;44.570;18.610;2023-10-31T01:04:13;35.05;;;16.85;;
78183;SDS011;67442;44.570;18.610;2023-10-31T01:06:44;34.10;;;16.75;;
78183;SDS011;67442;44.570;18.610;2023-10-31T01:09:11;31.58;;;16.08;;
78183;SDS011;67442;44.570;18.610;2023-10-31T01:11:39;31.27;;;15.65;;
78183;SDS011;67442;44.570;18.610;2023-10-31T01:14:06;34.10;;;16.63;;
78183;SDS011;67442;44.570;18.610;2023-10-31T01:16:33;33.17;;;16.10;;
78183;SDS011;67442;44.570;18.610;2023-10-31T01:19:01;33.67;;;16.20;;
78183;SDS011;67442;44.570;18.610;2023-10-31T01:21:29;31.88;;;16.58;;
78183;SDS011;67442;44.570;18.610;2023-10-31T01:23:58;32.97;;;16.20;;
78183;SDS011;67442;44.570;18.610;2023-10-31T01:26:25;32.80;;;16.77;;
78183;SDS011;67442;44.570;18.610;2023-10-31T01:28:52;30.00;;;15.85;;
78183;SDS011;67442;44.570;18.610;2023-10-31T01:31:19;30.10;;;16.38;;
78183;SDS011;67442;44.570;18.610;2023-10-31T01:33:47;29.10;;;16.10;;
78183;SDS011;67442;44.570;18.610;2023-10-31T01:36:18;33.28;;;16.58;;
78183;SDS011;67442;44.570;18.610;2023-10-31T01:38:45;31.38;;;16.02;;
78183;SDS011;67442;44.570;18.610;2023-10-31T01:41:16;31.92;;;15.93;;
78183;SDS011;67442;44.570;18.610;2023-10-31T01:43:44;29.63;;;15.95;;
78183;SDS011;67442;44.570;18.610;2023-10-31T01:46:11;29.00;;;14.93;;
78183;SDS011;67442;44.570;18.610;2023-10-31T01:48:38;29.17;;;15.40;;
78183;SDS011;67442;44.570;18.610;2023-10-31T01:51:06;29.38;;;15.40;;
78183;SDS011;67442;44.570;18.610;2023-10-31T01:53:34;32.38;;;16.48;;
78183;SDS011;67442;44.570;18.610;2023-10-31T01:56:03;29.60;;;14.88;;
78183;SDS011;67442;44.570;18.610;2023-10-31T01:58:32;30.52;;;15.90;;
78183;SDS011;67442;44.570;18.610;2023-10-31T02:01:22;27.98;;;15.15;;
78183;SDS011;67442;44.570;18.610;2023-10-31T02:03:50;25.65;;;14.07;;
78183;SDS011;67442;44.570;18.610;2023-10-31T02:06:18;24.55;;;13.65;;
78183;SDS011;67442;44.570;18.610;2023-10-31T02:08:46;28.60;;;15.73;;
78183;SDS011;67442;44.570;18.610;2023-10-31T02:11:17;28.15;;;14.52;;
78183;SDS011;67442;44.570;18.610;2023-10-31T02:13:44;29.52;;;14.50;;
78183;SDS011;67442;44.570;18.610;2023-10-31T02:16:12;31.23;;;15.82;;
78183;SDS011;67442;44.570;18.610;2023-10-31T02:18:39;27.48;;;14.02;;
78183;SDS011;67442;44.570;18.610;2023-10-31T02:21:07;30.35;;;15.35;;
78183;SDS011;67442;44.570;18.610;2023-10-31T02:23:34;31.23;;;15.73;;
78183;SDS011;67442;44.570;18.610;2023-10-31T02:26:05;27.70;;;14.45;;
78183;SDS011;67442;44.570;18.610;2023-10-31T02:28:37;27.90;;;14.70;;
78183;SDS011;67442;44.570;18.610;2023-10-31T02:31:04;27.75;;;14.75;;
78183;SDS011;67442;44.570;18.610;2023-10-31T02:33:32;29.67;;;15.38;;
78183;SDS011;67442;44.570;18.610;2023-10-31T02:35:59;29.65;;;14.38;;
78183;SDS011;67442;44.570;18.610;2023-10-31T02:38:26;27.02;;;14.40;;
78183;SDS011;67442;44.570;18.610;2023-10-31T02:40:53;26.83;;;14.23;;
78183;SDS011;67442;44.570;18.610;2023-10-31T02:43:24;27.13;;;14.27;;
78183;SDS011;67442;44.570;18.610;2023-10-31T02:45:52;28.30;;;14.40;;
78183;SDS011;67442;44.570;18.610;2023-10-31T02:48:19;27.63;;;14.65;;
78183;SDS011;67442;44.570;18.610;2023-10-31T02:50:46;28.73;;;14.77;;
78183;SDS011;67442;44.570;18.610;2023-10-31T02:53:14;26.33;;;14.50;;
78183;SDS011;67442;44.570;18.610;2023-10-31T02:55:41;25.75;;;13.98;;
78183;SDS011;67442;44.570;18.610;2023-10-31T02:58:13;27.67;;;14.02;;
78183;SDS011;67442;44.570;18.610;2023-10-31T03:00:42;28.00;;;13.90;;
78183;SDS011;67442;44.570;18.610;2023-10-31T03:03:10;26.75;;;14.02;;
78183;SDS011;67442;44.570;18.610;2023-10-31T03:05:37;27.23;;;14.38;;
78183;SDS011;67442;44.570;18.610;2023-10-31T03:08:04;26.50;;;13.68;;
78183;SDS011;67442;44.570;18.610;2023-10-31T03:10:33;29.27;;;14.48;;
78183;SDS011;67442;44.570;18.610;2023-10-31T03:13:01;28.92;;;13.85;;
78183;SDS011;67442;44.570;18.610;2023-10-31T03:15:28;25.42;;;13.88;;
78183;SDS011;67442;44.570;18.610;2023-10-31T03:17:55;24.67;;;13.77;;
78183;SDS011;67442;44.570;18.610;2023-10-31T03:20:23;28.27;;;14.93;;
78183;SDS011;67442;44.570;18.610;2023-10-31T03:22:54;26.92;;;14.52;;
78183;SDS011;67442;44.570;18.610;2023-10-31T03:25:25;28.27;;;14.43;;
78183;SDS011;67442;44.570;18.610;2023-10-31T03:27:56;25.20;;;13.25;;
78183;SDS011;67442;44.570;18.610;2023-10-31T03:30:24;25.48;;;13.48;;
78183;SDS011;67442;44.570;18.610;2023-10-31T03:32:51;25.52;;;13.30;;
78183;SDS011;67442;44.570;18.610;2023-10-31T03:35:18;25.13;;;13.48;;
78183;SDS011;67442;44.570;18.610;2023-10-31T03:37:46;27.85;;;13.45;;
78183;SDS011;67442;44.570;18.610;2023-10-31T03:40:13;22.85;;;12.98;;
78183;SDS011;67442;44.570;18.610;2023-10-31T03:42:41;25.50;;;13.77;;
78183;SDS011;67442;44.570;18.610;2023-10-31T03:45:08;27.20;;;13.43;;
78183;SDS011;67442;44.570;18.610;2023-10-31T03:47:36;24.83;;;12.35;;
78183;SDS011;67442;44.570;18.610;2023-10-31T03:50:08;25.88;;;13.68;;
78183;SDS011;67442;44.570;18.610;2023-10-31T03:52:36;25.20;;;13.55;;
78183;SDS011;67442;44.570;18.610;2023-10-31T03:55:08;25.23;;;13.00;;
78183;SDS011;67442;44.570;18.610;2023-10-31T03:57:35;26.75;;;13.25;;
78183;SDS011;67442;44.570;18.610;2023-10-31T04:00:02;22.85;;;12.38;;
78183;SDS011;67442;44.570;18.610;2023-10-31T04:02:33;25.08;;;13.50;;
78183;SDS011;67442;44.570;18.610;2023-10-31T04:04:59;25.65;;;12.88;;
78183;SDS011;67442;44.570;18.610;2023-10-31T04:07:31;25.30;;;13.10;;
78183;SDS011;67442;44.570;18.610;2023-10-31T04:09:58;24.05;;;13.25;;
78183;SDS011;67442;44.570;18.610;2023-10-31T04:12:29;23.45;;;12.77;;
78183;SDS011;67442;44.570;18.610;2023-10-31T04:14:56;23.15;;;12.82;;
78183;SDS011;67442;44.570;18.610;2023-10-31T04:17:24;22.90;;;13.00;;
78183;SDS011;67442;44.570;18.610;2023-10-31T04:19:51;25.10;;;13.15;;
78183;SDS011;67442;44.570;18.610;2023-10-31T04:22:19;22.45;;;12.00;;
78183;SDS011;67442;44.570;18.610;2023-10-31T04:24:46;21.52;;;12.13;;
78183;SDS011;67442;44.570;18.610;2023-10-31T04:27:17;22.65;;;12.70;;
78183;SDS011;67442;44.570;18.610;2023-10-31T04:29:45;23.40;;;11.88;;
78183;SDS011;67442;44.570;18.610;2023-10-31T04:32:12;23.60;;;12.07;;
78183;SDS011;67442;44.570;18.610;2023-10-31T04:34:39;23.17;;;12.38;;
78183;SDS011;67442;44.570;18.610;2023-10-31T04:37:06;25.48;;;13.25;;
78183;SDS011;67442;44.570;18.610;2023-10-31T04:39:37;24.27;;;11.90;;
78183;SDS011;67442;44.570;18.610;2023-10-31T04:42:05;23.85;;;12.63;;
78183;SDS011;67442;44.570;18.610;2023-10-31T04:44:36;23.23;;;12.20;;
78183;SDS011;67442;44.570;18.610;2023-10-31T04:47:03;21.30;;;11.00;;
78183;SDS011;67442;44.570;18.610;2023-10-31T04:49:34;25.05;;;11.85;;
78183;SDS011;67442;44.570;18.610;2023-10-31T04:52:05;24.20;;;12.73;;
78183;SDS011;67442;44.570;18.610;2023-10-31T04:54:32;23.00;;;12.25;;
78183;SDS011;67442;44.570;18.610;2023-10-31T04:56:59;21.98;;;11.65;;
78183;SDS011;67442;44.570;18.610;2023-10-31T04:59:27;23.25;;;12.43;;
78183;SDS011;67442;44.570;18.610;2023-10-31T05:01:54;20.58;;;11.73;;
78183;SDS011;67442;44.570;18.610;2023-10-31T05:04:22;20.50;;;11.32;;
78183;SDS011;67442;44.570;18.610;2023-10-31T05:06:49;21.52;;;12.25;;
78183;SDS011;67442;44.570;18.610;2023-10-31T05:09:20;20.80;;;11.07;;
78183;SDS011;67442;44.570;18.610;2023-10-31T05:11:48;20.75;;;11.50;;
78183;SDS011;67442;44.570;18.610;2023-10-31T05:14:20;21.15;;;11.40;;
78183;SDS011;67442;44.570;18.610;2023-10-31T05:16:47;21.60;;;11.43;;
78183;SDS011;67442;44.570;18.610;2023-10-31T05:19:15;21.90;;;11.45;;
78183;SDS011;67442;44.570;18.610;2023-10-31T05:21:43;20.10;;;10.60;;
78183;SDS011;67442;44.570;18.610;2023-10-31T05:24:10;19.02;;;10.15;;
78183;SDS011;67442;44.570;18.610;2023-10-31T05:26:41;21.73;;;11.50;;
78183;SDS011;67442;44.570;18.610;2023-10-31T05:29:13;21.17;;;10.82;;
78183;SDS011;67442;44.570;18.610;2023-10-31T05:31:40;21.65;;;11.05;;
78183;SDS011;67442;44.570;18.610;2023-10-31T05:34:08;20.35;;;11.15;;
78183;SDS011;67442;44.570;18.610;2023-10-31T05:36:36;18.92;;;10.52;;
78183;SDS011;67442;44.570;18.610;2023-10-31T05:39:03;19.55;;;10.48;;
78183;SDS011;67442;44.570;18.610;2023-10-31T05:41:34;20.33;;;10.65;;
78183;SDS011;67442;44.570;18.610;2023-10-31T05:44:05;19.52;;;10.85;;
78183;SDS011;67442;44.570;18.610;2023-10-31T05:46:37;19.30;;;10.32;;
78183;SDS011;67442;44.570;18.610;2023-10-31T05:49:06;25.92;;;12.38;;
78183;SDS011;67442;44.570;18.610;2023-10-31T05:51:38;41.00;;;15.20;;
78183;SDS011;67442;44.570;18.610;2023-10-31T05:54:06;48.50;;;16.92;;
78183;SDS011;67442;44.570;18.610;2023-10-31T05:56:37;48.72;;;18.65;;
78183;SDS011;67442;44.570;18.610;2023-10-31T05:59:08;49.75;;;18.52;;
78183;SDS011;67442;44.570;18.610;2023-10-31T06:01:34;53.05;;;18.92;;
78183;SDS011;67442;44.570;18.610;2023-10-31T06:04:02;50.20;;;20.75;;
78183;SDS011;67442;44.570;18.610;2023-10-31T06:06:33;44.35;;;18.80;;
78183;SDS011;67442;44.570;18.610;2023-10-31T06:09:03;48.92;;;19.33;;
78183;SDS011;67442;44.570;18.610;2023-10-31T06:11:30;51.95;;;20.70;;
78183;SDS011;67442;44.570;18.610;2023-10-31T06:13:58;43.45;;;18.92;;
78183;SDS011;67442;44.570;18.610;2023-10-31T06:16:29;47.63;;;19.30;;
78183;SDS011;67442;44.570;18.610;2023-10-31T06:18:57;48.45;;;19.95;;
78183;SDS011;67442;44.570;18.610;2023-10-31T06:21:27;46.20;;;18.92;;
78183;SDS011;67442;44.570;18.610;2023-10-31T06:23:55;48.17;;;19.15;;
78183;SDS011;67442;44.570;18.610;2023-10-31T06:26:26;42.22;;;18.13;;
78183;SDS011;67442;44.570;18.610;2023-10-31T06:28:57;45.80;;;19.75;;
78183;SDS011;67442;44.570;18.610;2023-10-31T06:31:28;42.83;;;17.67;;
78183;SDS011;67442;44.570;18.610;2023-10-31T06:33:55;42.75;;;17.90;;
78183;SDS011;67442;44.570;18.610;2023-10-31T06:36:22;39.97;;;17.40;;
78183;SDS011;67442;44.570;18.610;2023-10-31T06:38:50;41.97;;;17.77;;
78183;SDS011;67442;44.570;18.610;2023-10-31T06:41:21;38.15;;;17.15;;
78183;SDS011;67442;44.570;18.610;2023-10-31T06:43:52;45.30;;;19.05;;
78183;SDS011;67442;44.570;18.610;2023-10-31T06:46:23;40.17;;;16.95;;
78183;SDS011;67442;44.570;18.610;2023-10-31T06:48:51;42.67;;;18.10;;
78183;SDS011;67442;44.570;18.610;2023-10-31T06:51:18;37.58;;;16.42;;
78183;SDS011;67442;44.570;18.610;2023-10-31T06:53:45;45.30;;;16.88;;
78183;SDS011;67442;44.570;18.610;2023-10-31T06:56:13;40.08;;;17.67;;
78183;SDS011;67442;44.570;18.610;2023-10-31T06:58:40;41.47;;;16.98;;
78183;SDS011;67442;44.570;18.610;2023-10-31T07:01:08;40.53;;;17.38;;
78183;SDS011;67442;44.570;18.610;2023-10-31T07:03:36;41.33;;;16.38;;
78183;SDS011;67442;44.570;18.610;2023-10-31T07:06:04;40.13;;;16.70;;
78183;SDS011;67442;44.570;18.610;2023-10-31T07:08:32;40.95;;;16.70;;
78183;SDS011;67442;44.570;18.610;2023-10-31T07:11:03;42.45;;;17.60;;
78183;SDS011;67442;44.570;18.610;2023-10-31T07:13:34;40.58;;;16.58;;
78183;SDS011;67442;44.570;18.610;2023-10-31T07:16:06;44.72;;;17.95;;
78183;SDS011;67442;44.570;18.610;2023-10-31T07:18:35;37.17;;;16.33;;
78183;SDS011;67442;44.570;18.610;2023-10-31T07:21:03;38.72;;;16.58;;
78183;SDS011;67442;44.570;18.610;2023-10-31T07:23:31;40.40;;;16.70;;
78183;SDS011;67442;44.570;18.610;2023-10-31T07:26:01;38.80;;;16.83;;
78183;SDS011;67442;44.570;18.610;2023-10-31T07:28:29;41.05;;;17.10;;
78183;SDS011;67442;44.570;18.610;2023-10-31T07:30:57;39.60;;;16.17;;
78183;SDS011;67442;44.570;18.610;2023-10-31T07:33:25;38.15;;;16.20;;
78183;SDS011;67442;44.570;18.610;2023-10-31T07:35:53;38.33;;;15.80;;
78183;SDS011;67442;44.570;18.610;2023-10-31T07:38:24;41.38;;;16.55;;
78183;SDS011;67442;44.570;18.610;2023-10-31T07:40:52;38.33;;;15.80;;
78183;SDS011;67442;44.570;18.610;2023-10-31T07:43:19;37.55;;;16.17;;
78183;SDS011;67442;44.570;18.610;2023-10-31T07:45:50;37.50;;;16.10;;
78183;SDS011;67442;44.570;18.610;2023-10-31T07:48:18;33.35;;;15.18;;
78183;SDS011;67442;44.570;18.610;2023-10-31T07:50:49;41.47;;;15.90;;
78183;SDS011;67442;44.570;18.610;2023-10-31T07:53:20;33.33;;;16.17;;
78183;SDS011;67442;44.570;18.610;2023-10-31T07:55:48;38.05;;;16.20;;
78183;SDS011;67442;44.570;18.610;2023-10-31T07:58:16;34.00;;;16.00;;
78183;SDS011;67442;44.570;18.610;2023-10-31T08:00:46;31.20;;;14.80;;
78183;SDS011;67442;44.570;18.610;2023-10-31T08:03:14;32.75;;;15.73;;
78183;SDS011;67442;44.570;18.610;2023-10-31T08:05:45;35.08;;;14.82;;
78183;SDS011;67442;44.570;18.610;2023-10-31T08:08:12;30.48;;;14.65;;
78183;SDS011;67442;44.570;18.610;2023-10-31T08:10:40;38.25;;;15.60;;
78183;SDS011;67442;44.570;18.610;2023-10-31T08:13:07;36.75;;;14.98;;
78183;SDS011;67442;44.570;18.610;2023-10-31T08:15:35;33.55;;;15.55;;
78183;SDS011;67442;44.570;18.610;2023-10-31T08:18:06;37.15;;;15.88;;
78183;SDS011;67442;44.570;18.610;2023-10-31T08:20:37;34.75;;;15.25;;
78183;SDS011;67442;44.570;18.610;2023-10-31T08:23:04;33.85;;;15.20;;
78183;SDS011;67442;44.570;18.610;2023-10-31T08:25:32;37.97;;;15.32;;
78183;SDS011;67442;44.570;18.610;2023-10-31T08:28:00;34.53;;;15.02;;
78183;SDS011;67442;44.570;18.610;2023-10-31T08:30:31;30.30;;;14.55;;
78183;SDS011;67442;44.570;18.610;2023-10-31T08:32:59;32.88;;;14.38;;
78183;SDS011;67442;44.570;18.610;2023-10-31T08:35:31;31.15;;;14.45;;
78183;SDS011;67442;44.570;18.610;2023-10-31T08:37:58;29.58;;;13.60;;
78183;SDS011;67442;44.570;18.610;2023-10-31T08:40:25;34.00;;;15.10;;
78183;SDS011;67442;44.570;18.610;2023-10-31T08:42:53;30.73;;;13.77;;
78183;SDS011;67442;44.570;18.610;2023-10-31T08:45:21;34.00;;;14.80;;
78183;SDS011;67442;44.570;18.610;2023-10-31T08:47:49;36.13;;;15.52;;
78183;SDS011;67442;44.570;18.610;2023-10-31T08:50:16;30.50;;;13.38;;
78183;SDS011;67442;44.570;18.610;2023-10-31T08:52:44;27.90;;;13.38;;
78183;SDS011;67442;44.570;18.610;2023-10-31T08:55:12;30.65;;;14.15;;
78183;SDS011;67442;44.570;18.610;2023-10-31T08:57:39;31.58;;;13.65;;
78183;SDS011;67442;44.570;18.610;2023-10-31T09:00:07;29.67;;;14.18;;
78183;SDS011;67442;44.570;18.610;2023-10-31T09:02:35;30.23;;;13.93;;
78183;SDS011;67442;44.570;18.610;2023-10-31T09:05:02;33.20;;;14.75;;
78183;SDS011;67442;44.570;18.610;2023-10-31T09:07:31;29.92;;;13.05;;
78183;SDS011;67442;44.570;18.610;2023-10-31T09:10:02;30.65;;;14.02;;
78183;SDS011;67442;44.570;18.610;2023-10-31T09:12:31;29.42;;;13.88;;
78183;SDS011;67442;44.570;18.610;2023-10-31T09:14:58;30.67;;;13.73;;
78183;SDS011;67442;44.570;18.610;2023-10-31T09:17:30;26.83;;;13.95;;
78183;SDS011;67442;44.570;18.610;2023-10-31T09:19:57;26.30;;;13.25;;
78183;SDS011;67442;44.570;18.610;2023-10-31T09:22:25;31.02;;;13.32;;
78183;SDS011;67442;44.570;18.610;2023-10-31T09:24:52;28.98;;;13.43;;
78183;SDS011;67442;44.570;18.610;2023-10-31T09:27:23;28.38;;;13.38;;
78183;SDS011;67442;44.570;18.610;2023-10-31T09:29:50;28.85;;;13.05;;
78183;SDS011;67442;44.570;18.610;2023-10-31T09:32:18;30.55;;;13.13;;
78183;SDS011;67442;44.570;18.610;2023-10-31T09:34:46;27.70;;;12.80;;
78183;SDS011;67442;44.570;18.610;2023-10-31T09:37:13;31.55;;;14.30;;
78183;SDS011;67442;44.570;18.610;2023-10-31T09:39:45;30.70;;;13.32;;
78183;SDS011;67442;44.570;18.610;2023-10-31T09:42:15;27.60;;;13.43;;
78183;SDS011;67442;44.570;18.610;2023-10-31T09:44:44;27.10;;;12.80;;
78183;SDS011;67442;44.570;18.610;2023-10-31T09:47:11;27.30;;;12.73;;
78183;SDS011;67442;44.570;18.610;2023-10-31T09:49:39;30.45;;;13.45;;
78183;SDS011;67442;44.570;18.610;2023-10-31T09:52:07;29.02;;;13.70;;
78183;SDS011;67442;44.570;18.610;2023-10-31T09:54:37;26.92;;;12.85;;
78183;SDS011;67442;44.570;18.610;2023-10-31T09:57:09;26.30;;;12.60;;
78183;SDS011;67442;44.570;18.610;2023-10-31T09:59:37;25.98;;;12.45;;
78183;SDS011;67442;44.570;18.610;2023-10-31T10:02:04;27.63;;;13.38;;
78183;SDS011;67442;44.570;18.610;2023-10-31T10:04:32;25.15;;;12.80;;
78183;SDS011;67442;44.570;18.610;2023-10-31T10:07:00;20.73;;;11.52;;
78183;SDS011;67442;44.570;18.610;2023-10-31T10:09:31;29.50;;;12.52;;
78183;SDS011;67442;44.570;18.610;2023-10-31T10:11:58;25.55;;;12.30;;
78183;SDS011;67442;44.570;18.610;2023-10-31T10:14:30;29.08;;;13.25;;
78183;SDS011;67442;44.570;18.610;2023-10-31T10:16:59;27.98;;;12.68;;
78183;SDS011;67442;44.570;18.610;2023-10-31T10:19:30;27.88;;;12.70;;
78183;SDS011;67442;44.570;18.610;2023-10-31T10:21:58;25.08;;;12.43;;
78183;SDS011;67442;44.570;18.610;2023-10-31T10:24:28;27.65;;;12.00;;
78183;SDS011;67442;44.570;18.610;2023-10-31T10:27:00;27.90;;;12.93;;
78183;SDS011;67442;44.570;18.610;2023-10-31T10:29:28;25.63;;;12.60;;
78183;SDS011;67442;44.570;18.610;2023-10-31T10:31:59;23.88;;;11.55;;
78183;SDS011;67442;44.570;18.610;2023-10-31T10:34:27;31.52;;;12.90;;
78183;SDS011;67442;44.570;18.610;2023-10-31T10:36:54;26.73;;;12.38;;
78183;SDS011;67442;44.570;18.610;2023-10-31T10:39:26;23.90;;;12.10;;
78183;SDS011;67442;44.570;18.610;2023-10-31T10:41:58;24.25;;;11.40;;
78183;SDS011;67442;44.570;18.610;2023-10-31T10:44:33;26.52;;;12.35;;
78183;SDS011;67442;44.570;18.610;2023-10-31T10:47:06;28.63;;;12.25;;
78183;SDS011;67442;44.570;18.610;2023-10-31T10:49:36;23.20;;;11.57;;
78183;SDS011;67442;44.570;18.610;2023-10-31T10:52:10;27.13;;;12.18;;
78183;SDS011;67442;44.570;18.610;2023-10-31T10:57:17;25.48;;;12.05;;
78183;SDS011;67442;44.570;18.610;2023-10-31T10:59:55;25.80;;;11.27;;
78183;SDS011;67442;44.570;18.610;2023-10-31T11:02:29;22.77;;;11.77;;
78183;SDS011;67442;44.570;18.610;2023-10-31T11:05:01;23.52;;;11.15;;
78183;SDS011;67442;44.570;18.610;2023-10-31T11:07:33;24.77;;;11.25;;
78183;SDS011;67442;44.570;18.610;2023-10-31T11:10:01;23.55;;;10.85;;
78183;SDS011;67442;44.570;18.610;2023-10-31T11:12:30;23.20;;;10.88;;
78183;SDS011;67442;44.570;18.610;2023-10-31T11:14:58;23.58;;;12.00;;
78183;SDS011;67442;44.570;18.610;2023-10-31T11:17:31;21.77;;;11.57;;
78183;SDS011;67442;44.570;18.610;2023-10-31T11:20:06;28.23;;;11.80;;
78183;SDS011;67442;44.570;18.610;2023-10-31T11:22:39;27.13;;;12.15;;
78183;SDS011;67442;44.570;18.610;2023-10-31T11:25:13;24.15;;;11.00;;
78183;SDS011;67442;44.570;18.610;2023-10-31T11:27:52;26.27;;;11.88;;
78183;SDS011;67442;44.570;18.610;2023-10-31T11:30:27;22.63;;;11.02;;
78183;SDS011;67442;44.570;18.610;2023-10-31T11:33:04;24.48;;;11.82;;
78183;SDS011;67442;44.570;18.610;2023-10-31T11:35:37;20.02;;;10.30;;
78183;SDS011;67442;44.570;18.610;2023-10-31T11:38:06;20.92;;;10.82;;
78183;SDS011;67442;44.570;18.610;2023-10-31T11:40:35;21.67;;;10.88;;
78183;SDS011;67442;44.570;18.610;2023-10-31T11:43:03;22.52;;;10.90;;
78183;SDS011;67442;44.570;18.610;2023-10-31T11:45:37;23.00;;;10.55;;
78183;SDS011;67442;44.570;18.610;2023-10-31T11:48:14;22.00;;;10.65;;
78183;SDS011;67442;44.570;18.610;2023-10-31T11:50:44;24.63;;;11.27;;
78183;SDS011;67442;44.570;18.610;2023-10-31T11:53:13;23.42;;;11.38;;
78183;SDS011;67442;44.570;18.610;2023-10-31T11:55:43;23.15;;;11.68;;
78183;SDS011;67442;44.570;18.610;2023-10-31T11:58:15;24.13;;;11.73;;
78183;SDS011;67442;44.570;18.610;2023-10-31T12:00:49;23.77;;;12.00;;
78183;SDS011;67442;44.570;18.610;2023-10-31T12:03:17;23.83;;;11.02;;
78183;SDS011;67442;44.570;18.610;2023-10-31T12:08:24;23.23;;;11.32;;
78183;SDS011;67442;44.570;18.610;2023-10-31T12:13:38;23.45;;;11.32;;
78183;SDS011;67442;44.570;18.610;2023-10-31T12:16:11;25.23;;;11.90;;
78183;SDS011;67442;44.570;18.610;2023-10-31T12:18:38;20.45;;;10.50;;
78183;SDS011;67442;44.570;18.610;2023-10-31T12:21:06;21.65;;;10.57;;
78183;SDS011;67442;44.570;18.610;2023-10-31T12:23:38;21.70;;;11.00;;
78183;SDS011;67442;44.570;18.610;2023-10-31T12:26:06;21.65;;;10.38;;
78183;SDS011;67442;44.570;18.610;2023-10-31T12:28:38;22.33;;;11.77;;
78183;SDS011;67442;44.570;18.610;2023-10-31T12:31:05;20.48;;;10.73;;
78183;SDS011;67442;44.570;18.610;2023-10-31T12:33:37;21.15;;;10.40;;
78183;SDS011;67442;44.570;18.610;2023-10-31T12:36:06;20.10;;;10.35;;
78183;SDS011;67442;44.570;18.610;2023-10-31T12:38:34;26.10;;;11.00;;
78183;SDS011;67442;44.570;18.610;2023-10-31T12:41:05;23.75;;;11.13;;
78183;SDS011;67442;44.570;18.610;2023-10-31T12:43:36;22.55;;;10.82;;
78183;SDS011;67442;44.570;18.610;2023-10-31T12:48:56;21.33;;;10.75;;
78183;SDS011;67442;44.570;18.610;2023-10-31T12:51:26;18.88;;;9.48;;
78183;SDS011;67442;44.570;18.610;2023-10-31T12:53:57;21.60;;;11.25;;
78183;SDS011;67442;44.570;18.610;2023-10-31T12:56:40;19.45;;;10.23;;
78183;SDS011;67442;44.570;18.610;2023-10-31T12:59:08;22.15;;;10.30;;
78183;SDS011;67442;44.570;18.610;2023-10-31T13:01:55;21.25;;;10.93;;
78183;SDS011;67442;44.570;18.610;2023-10-31T13:04:27;22.10;;;10.70;;
78183;SDS011;67442;44.570;18.610;2023-10-31T13:06:58;22.25;;;10.80;;
78183;SDS011;67442;44.570;18.610;2023-10-31T13:09:34;19.70;;;10.45;;
78183;SDS011;67442;44.570;18.610;2023-10-31T13:12:08;20.00;;;10.48;;
78183;SDS011;67442;44.570;18.610;2023-10-31T13:14:36;18.90;;;10.23;;
78183;SDS011;67442;44.570;18.610;2023-10-31T13:17:07;22.45;;;10.35;;
78183;SDS011;67442;44.570;18.610;2023-10-31T13:19:34;18.83;;;10.30;;
78183;SDS011;67442;44.570;18.610;2023-10-31T13:22:02;18.38;;;9.70;;
78183;SDS011;67442;44.570;18.610;2023-10-31T13:24:29;21.20;;;10.40;;
78183;SDS011;67442;44.570;18.610;2023-10-31T13:26:57;20.33;;;9.88;;
78183;SDS011;67442;44.570;18.610;2023-10-31T13:29:30;19.13;;;9.50;;
78183;SDS011;67442;44.570;18.610;2023-10-31T13:32:01;20.58;;;10.63;;
78183;SDS011;67442;44.570;18.610;2023-10-31T13:34:29;17.17;;;9.13;;
78183;SDS011;67442;44.570;18.610;2023-10-31T13:36:58;21.83;;;10.30;;
78183;SDS011;67442;44.570;18.610;2023-10-31T13:39:30;20.88;;;10.15;;
78183;SDS011;67442;44.570;18.610;2023-10-31T13:42:01;21.17;;;10.60;;
78183;SDS011;67442;44.570;18.610;2023-10-31T13:44:29;19.50;;;10.55;;
78183;SDS011;67442;44.570;18.610;2023-10-31T13:47:00;20.13;;;9.55;;
78183;SDS011;67442;44.570;18.610;2023-10-31T13:49:28;18.33;;;9.45;;
78183;SDS011;67442;44.570;18.610;2023-10-31T13:51:55;23.05;;;10.82;;
78183;SDS011;67442;44.570;18.610;2023-10-31T13:54:23;20.92;;;9.90;;
78183;SDS011;67442;44.570;18.610;2023-10-31T13:56:50;19.90;;;10.05;;
78183;SDS011;67442;44.570;18.610;2023-10-31T13:59:21;21.30;;;10.68;;
78183;SDS011;67442;44.570;18.610;2023-10-31T14:01:52;21.42;;;10.05;;
78183;SDS011;67442;44.570;18.610;2023-10-31T14:04:20;19.67;;;10.05;;
78183;SDS011;67442;44.570;18.610;2023-10-31T14:06:47;19.60;;;9.73;;
78183;SDS011;67442;44.570;18.610;2023-10-31T14:09:14;18.00;;;9.60;;
78183;SDS011;67442;44.570;18.610;2023-10-31T14:11:41;18.52;;;9.75;;
78183;SDS011;67442;44.570;18.610;2023-10-31T14:14:09;22.13;;;10.70;;
78183;SDS011;67442;44.570;18.610;2023-10-31T14:16:44;20.90;;;10.02;;
78183;SDS011;67442;44.570;18.610;2023-10-31T14:19:12;20.13;;;10.07;;
78183;SDS011;67442;44.570;18.610;2023-10-31T14:21:42;19.48;;;10.15;;
78183;SDS011;67442;44.570;18.610;2023-10-31T14:24:09;19.20;;;9.50;;
78183;SDS011;67442;44.570;18.610;2023-10-31T14:26:37;19.15;;;9.82;;
78183;SDS011;67442;44.570;18.610;2023-10-31T14:29:06;24.02;;;10.70;;
78183;SDS011;67442;44.570;18.610;2023-10-31T14:31:37;17.63;;;9.43;;